Time;durP1;ratioP1;P1;durP2;ratioP2;P2;SDS_P1;SDS_P2;PMS_P1;PMS_P2;Temp;Humidity;BMP_temperature;BMP_pressure;BME280_temperature;BME280_humidity;BME280_pressure;Samples;Min_cycle;Max_cycle;Signal;HPM_P1;HPM_P2
2022/01/18 00:02:23;;;;;;;6.75;3.53;;;;;;;6.55;69.64;101113.34;4903001;29;20028;-93
2022/01/18 00:04:50;;;;;;;5.03;3.40;;;;;;;6.11;70.21;101081.50;4885793;29;20075;-93
2022/01/18 00:07:40;;;;;;;4.57;3.33;;;;;;;6.47;69.94;101131.78;4886005;29;20028;-91
2022/01/18 00:10:06;;;;;;;5.45;2.95;;;;;;;6.19;70.23;101104.56;4850825;29;1512729;-92
2022/01/18 00:16:12;;;;;;;4.15;2.83;;;;;;;6.49;69.99;101121.53;4937368;29;20038;-91
2022/01/18 00:24:40;;;;;;;5.05;3.50;;;;;;;6.55;69.59;101124.59;4921194;29;20039;-91
2022/01/18 00:33:18;;;;;;;4.85;3.00;;;;;;;6.39;69.70;101098.28;4920935;29;20482;-90
2022/01/18 00:36:02;;;;;;;;;;;;;;;6.64;69.24;101139.97;4905967;29;20031;-91
2022/01/18 00:38:46;;;;;;;4.28;2.88;;;;;;;6.35;69.39;101088.47;4920583;29;19915;-90
2022/01/18 00:41:19;;;;;;;3.88;3.08;;;;;;;6.59;69.85;101139.63;4905387;29;20047;-90
2022/01/18 00:43:55;;;;;;;4.60;2.92;;;;;;;6.31;69.50;101092.53;4919704;29;20039;-91
2022/01/18 00:46:25;;;;;;;4.07;2.83;;;;;;;6.48;69.49;101117.16;4894400;29;20032;-91
2022/01/18 00:48:54;;;;;;;4.70;3.08;;;;;;;6.67;69.66;101143.69;4884974;29;20040;-90
2022/01/18 00:51:22;;;;;;;4.25;2.85;;;;;;;6.28;69.17;101094.88;4884774;29;20032;-89
2022/01/18 00:53:49;;;;;;;4.30;3.13;;;;;;;6.71;69.05;101132.75;4884727;29;20032;-89
2022/01/18 00:56:25;;;;;;;4.40;3.05;;;;;;;6.58;69.25;101135.19;4884610;29;20024;-89
2022/01/18 00:58:55;;;;;;;3.92;3.10;;;;;;;6.43;70.15;101144.41;4885807;29;20069;-89
2022/01/18 01:01:30;;;;;;;3.65;2.55;;;;;;;6.47;70.00;101155.16;4894860;29;20039;-90
2022/01/18 01:07:40;;;;;;;4.47;3.05;;;;;;;6.84;69.16;101164.84;4936681;29;20047;-92
2022/01/18 01:10:26;;;;;;;5.75;2.90;;;;;;;6.63;69.75;101172.81;4901459;29;20118;-92
2022/01/18 01:13:02;;;;;;;5.30;2.97;;;;;;;6.39;70.20;101134.59;4899300;29;20044;-92
2022/01/18 01:15:39;;;;;;;4.65;3.08;;;;;;;6.51;70.12;101156.28;4885151;29;20526;-90
2022/01/18 01:18:30;;;;;;;4.95;3.05;;;;;;;6.48;70.72;101177.72;4885874;29;20397;-90
2022/01/18 01:35:16;;;;;;;5.72;2.95;;;;;;;6.72;69.81;101255.66;4900393;29;20052;-89
2022/01/18 01:43:47;;;;;;;3.65;2.90;;;;;;;6.51;69.81;101260.06;4901814;29;20178;-88
2022/01/18 01:46:18;;;;;;;5.25;3.08;;;;;;;6.83;69.05;101283.31;4900959;29;20028;-87
2022/01/18 01:48:52;;;;;;;4.60;3.30;;;;;;;6.83;68.66;101309.28;4899494;29;20063;-88
2022/01/18 01:51:30;;;;;;;9.73;3.35;;;;;;;6.64;69.89;101376.09;4900434;29;20028;-89
2022/01/18 01:54:09;;;;;;;4.28;2.92;;;;;;;6.91;68.66;101375.69;4900367;29;20031;-88
2022/01/18 01:56:35;;;;;;;4.70;3.20;;;;;;;6.87;68.86;101402.19;4900241;29;20032;-91
2022/01/18 01:59:46;;;;;;;6.10;3.08;;;;;;;6.76;69.51;101420.31;4900169;29;20089;-93
2022/01/18 02:02:21;;;;;;;5.13;2.65;;;;;;;6.85;68.77;101421.94;4899981;29;20044;-93
2022/01/18 02:05:09;;;;;;;4.60;2.33;;;;;;;6.90;68.74;101446.59;4900051;29;20027;-91
2022/01/18 02:07:49;;;;;;;4.65;2.33;;;;;;;6.63;68.63;101406.34;4884246;29;20151;-90
2022/01/18 02:10:48;;;;;;;4.25;2.28;;;;;;;6.76;68.89;101423.81;4884141;29;20035;-88
2022/01/18 02:13:15;;;;;;;4.55;2.60;;;;;;;6.69;69.33;101431.91;4865338;29;20048;-89
2022/01/18 02:21:54;;;;;;;2.35;1.92;;;;;;;6.38;69.47;101413.84;4898018;29;20048;-93
2022/01/18 02:24:21;;;;;;;3.05;1.90;;;;;;;6.39;68.61;101387.16;4865537;29;20132;-92
2022/01/18 02:27:23;;;;;;;3.03;1.83;;;;;;;6.72;68.54;101474.56;4865315;29;20041;-91
2022/01/18 02:30:02;;;;;;;3.15;2.03;;;;;;;6.60;68.24;101436.34;4896595;29;20041;-91
2022/01/18 02:33:08;;;;;;;3.20;2.10;;;;;;;6.61;69.04;101482.28;4865510;29;20037;-93
2022/01/18 02:35:49;;;;;;;3.38;1.77;;;;;;;6.70;68.42;101485.59;4897602;29;20027;-92
2022/01/18 02:38:35;;;;;;;2.28;1.65;;;;;;;6.73;68.30;101489.38;4896613;29;20051;-91
2022/01/18 02:41:24;;;;;;;3.85;1.70;;;;;;;6.54;68.31;101488.66;4880843;29;20025;-90
2022/01/18 02:44:13;;;;;;;3.78;1.70;;;;;;;6.66;68.50;101510.41;4865991;29;20044;-91
2022/01/18 02:46:42;;;;;;;2.45;1.90;;;;;;;6.82;67.62;101533.31;4876494;29;20127;-89
2022/01/18 02:49:10;;;;;;;2.78;1.80;;;;;;;6.69;67.85;101544.41;4888395;29;20025;-90
2022/01/18 02:52:10;;;;;;;2.25;1.67;;;;;;;6.70;67.74;101546.19;4882930;29;20128;-91
2022/01/18 02:54:43;;;;;;;3.20;1.63;;;;;;;6.56;67.92;101515.66;4882955;29;20051;-89
2022/01/18 02:57:15;;;;;;;2.78;1.90;;;;;;;6.50;68.19;101517.72;4881945;29;20041;-93
2022/01/18 03:00:17;;;;;;;4.55;2.05;;;;;;;6.41;68.61;101537.72;4885973;29;20039;-91
2022/01/18 03:05:44;;;;;;;2.58;1.70;;;;;;;6.46;68.25;101532.13;4900340;29;20156;-94
2022/01/18 03:08:48;;;;;;;3.05;1.77;;;;;;;6.76;68.02;101563.97;4900104;29;20425;-91
2022/01/18 03:11:46;;;;;;;3.53;1.85;;;;;;;6.68;68.06;101581.50;4890694;29;20044;-93
2022/01/18 03:14:23;;;;;;;4.65;2.10;;;;;;;6.48;67.98;101546.13;4887239;29;20059;-93
2022/01/18 03:16:50;;;;;;;2.85;1.80;;;;;;;6.64;67.57;101583.72;4905542;29;20451;-90
2022/01/18 03:19:33;;;;;;;2.08;1.50;;;;;;;6.35;68.30;101547.56;4868817;29;20024;-91
2022/01/18 03:22:09;;;;;;;2.70;1.73;;;;;;;6.21;67.66;101533.47;4899343;29;20107;-92
2022/01/18 03:25:40;;;;;;;3.43;1.80;;;;;;;6.47;68.11;101600.50;4868365;29;20024;-90
2022/01/18 03:28:39;;;;;;;3.95;2.65;;;;;;;6.63;67.81;101603.59;4883777;29;20387;-91
2022/01/18 03:31:18;;;;;;;2.40;1.50;;;;;;;6.55;67.86;101578.69;4900545;29;20036;-91
2022/01/18 03:33:45;;;;;;;2.33;1.80;;;;;;;6.26;67.38;101566.78;4883420;29;20032;-91
2022/01/18 03:36:26;;;;;;;3.00;1.83;;;;;;;6.26;67.84;101574.56;4868234;29;20048;-90
2022/01/18 03:39:07;;;;;;;2.55;1.67;;;;;;;6.68;67.97;101654.19;4900447;29;20029;-92
2022/01/18 03:41:55;;;;;;;1.98;1.50;;;;;;;6.57;67.63;101648.88;4867900;29;20037;-89
2022/01/18 03:47:23;;;;;;;3.03;1.98;;;;;;;6.59;67.74;101681.97;4918810;29;19922;-92
2022/01/18 03:49:52;;;;;;;3.00;1.85;;;;;;;6.65;68.17;101713.63;4919053;29;20032;-91
2022/01/18 03:52:29;;;;;;;2.72;1.98;;;;;;;6.32;67.99;101645.09;4902118;29;20095;-92
2022/01/18 03:54:58;;;;;;;2.70;1.73;;;;;;;6.69;68.26;101713.13;4886530;29;20024;-92
2022/01/18 03:58:00;;;;;;;2.08;1.70;;;;;;;6.59;68.64;101723.50;4901500;29;20064;-93
2022/01/18 04:03:51;;;;;;;2.70;1.80;;;;;;;6.63;68.23;101732.47;4899660;29;20059;-91
2022/01/18 04:06:46;;;;;;;4.15;1.70;;;;;;;6.67;68.48;101742.31;4867771;29;20058;-92
2022/01/18 04:09:25;;;;;;;2.55;1.70;;;;;;;6.49;68.96;101747.72;4882239;29;20056;-92
2022/01/18 04:12:02;;;;;;;2.78;1.80;;;;;;;6.35;68.68;101711.94;4870037;29;20070;-92
2022/01/18 04:14:33;;;;;;;;;;;;;;;6.77;67.85;101755.28;4902232;29;20513;-91
2022/01/18 04:26:04;;;;;;;2.70;1.73;;;;;;;6.53;68.77;101790.44;4903973;29;20142;-93
2022/01/18 04:28:44;;;;;;;3.28;1.70;;;;;;;6.55;68.40;101780.19;4885955;29;20036;-91
2022/01/18 04:31:11;;;;;;;4.10;2.03;;;;;;;6.09;68.97;101722.63;4899649;29;20027;-92
2022/01/18 04:33:53;;;;;;;2.55;1.42;;;;;;;6.39;69.07;101768.50;4920509;29;20032;-92
2022/01/18 04:36:20;;;;;;;3.20;1.75;;;;;;;6.51;69.25;101782.50;4901597;29;20024;-93
2022/01/18 04:38:50;;;;;;;;;;;;;;;6.58;68.68;101783.03;4886172;29;20063;-93
2022/01/18 04:41:30;;;;;;;2.65;1.80;;;;;;;6.45;68.75;101770.69;4901013;29;19915;-91
2022/01/18 04:50:42;;;;;;;1.80;1.50;;;;;;;6.50;68.73;101817.03;4920857;29;20587;-91
2022/01/18 04:53:47;;;;;;;1.90;1.40;;;;;;;6.47;68.68;101839.19;4919847;29;20086;-93
2022/01/18 04:59:11;;;;;;;3.35;1.50;;;;;;;6.51;69.00;101856.84;4920182;29;20028;-93
2022/01/18 05:01:41;;;;;;;1.48;1.38;;;;;;;6.42;69.15;101864.75;4904016;29;20095;-94
2022/01/18 05:04:10;;;;;;;1.73;1.48;;;;;;;6.47;69.28;101879.03;4904391;29;20028;-93
2022/01/18 05:07:32;;;;;;;2.85;1.50;;;;;;;6.51;68.94;101891.50;4900782;29;20060;-94
2022/01/18 05:10:05;;;;;;;1.60;1.30;;;;;;;6.36;69.16;101882.38;4916741;29;20546;-93
2022/01/18 05:12:42;;;;;;;1.90;1.35;;;;;;;6.28;69.37;101893.72;4884451;29;20103;-94
2022/01/18 05:15:42;;;;;;;1.75;1.50;;;;;;;6.53;69.13;101909.81;4903271;29;20036;-91
2022/01/18 05:24:54;;;;;;;2.00;1.50;;;;;;;6.51;69.19;101921.72;4868695;29;20503;-93
2022/01/18 05:27:23;;;;;;;2.33;1.60;;;;;;;6.26;69.43;101909.16;4917217;29;20039;-93
2022/01/18 05:29:52;;;;;;;2.15;1.55;;;;;;;6.48;69.15;101924.06;4903148;29;20032;-93
2022/01/18 05:32:43;;;;;;;2.88;1.70;;;;;;;6.43;69.27;101948.69;4903879;29;20032;-92
2022/01/18 05:38:53;;;;;;;2.40;1.70;;;;;;;6.53;68.99;101947.03;4937042;29;20031;-94
2022/01/18 05:41:32;;;;;;;2.55;1.80;;;;;;;6.29;69.42;101918.91;4920188;29;20046;-92
2022/01/18 05:44:11;;;;;;;3.03;1.60;;;;;;;6.56;68.94;101946.44;4899787;29;20107;-92
2022/01/18 05:46:36;;;;;;;3.97;1.98;;;;;;;6.36;68.83;101931.66;4899455;29;20028;-87
2022/01/18 05:49:06;;;;;;;2.10;1.60;;;;;;;6.46;69.17;101972.31;4899276;29;20039;-92
2022/01/18 05:55:09;;;;;;;2.15;1.58;;;;;;;6.20;69.31;101941.41;4931246;29;20079;-91
2022/01/18 05:58:15;;;;;;;2.25;1.58;;;;;;;6.56;69.08;102015.56;4889452;29;20123;-91
2022/01/18 06:00:54;;;;;;;2.58;1.52;;;;;;;6.41;68.83;101989.13;4899493;29;20042;-91
2022/01/18 06:03:51;;;;;;;2.65;1.80;;;;;;;6.36;68.83;102001.69;4894834;29;20641;-90
2022/01/18 06:09:01;;;;;;;1.85;1.60;;;;;;;6.48;69.68;102027.88;4920697;29;20038;-91
2022/01/18 06:11:28;;;;;;;2.05;1.67;;;;;;;6.50;69.17;102035.00;4935431;29;20057;-92
2022/01/18 06:14:12;;;;;;;4.30;1.95;;;;;;;6.60;68.96;102038.41;4902556;29;20156;-93
2022/01/18 06:16:41;;;;;;;2.08;1.60;;;;;;;6.61;68.70;102040.25;4899815;29;20062;-93
2022/01/18 06:19:28;;;;;;;1.85;1.52;;;;;;;6.66;68.79;102041.56;4884227;29;20036;-94
2022/01/18 06:21:55;;;;;;;2.10;1.60;;;;;;;6.58;68.69;102033.09;4890120;29;20131;-91
2022/01/18 06:24:22;;;;;;;2.72;1.63;;;;;;;6.50;68.62;102040.19;4916054;29;20064;-90
2022/01/18 06:26:49;;;;;;;4.03;1.60;;;;;;;6.32;68.65;102008.28;4883335;29;20039;-92
2022/01/18 06:29:15;;;;;;;3.03;1.98;;;;;;;6.29;69.39;102014.91;4916095;29;20121;-91
2022/01/18 06:32:19;;;;;;;2.63;1.70;;;;;;;6.57;68.82;102049.44;4897166;29;20035;-91
2022/01/18 06:38:10;;;;;;;3.28;1.90;;;;;;;6.55;69.02;102073.44;4934652;29;20504;-93
2022/01/18 06:40:49;;;;;;;2.65;1.75;;;;;;;6.47;69.04;102062.34;4895137;29;20047;-92
2022/01/18 06:43:22;;;;;;;2.42;1.83;;;;;;;6.46;69.05;102070.94;4903310;29;20036;-93
2022/01/18 06:45:56;;;;;;;2.70;2.00;;;;;;;6.29;69.23;102053.81;4939212;29;20035;-93
2022/01/18 06:48:44;;;;;;;3.30;1.95;;;;;;;6.53;69.21;102081.09;4922351;29;20032;-92
2022/01/18 06:51:22;;;;;;;2.70;2.00;;;;;;;6.48;69.14;102090.16;4906268;29;20047;-91
2022/01/18 06:57:31;;;;;;;3.22;2.10;;;;;;;6.54;69.01;102090.72;4928167;29;20111;-91
2022/01/18 07:00:26;;;;;;;3.17;2.28;;;;;;;6.58;68.96;102087.59;4906067;29;20045;-92
2022/01/18 07:02:54;;;;;;;3.55;2.30;;;;;;;6.37;68.91;102060.63;4922072;29;20036;-93
2022/01/18 07:05:40;;;;;;;3.53;2.20;;;;;;;6.53;68.98;102109.63;4907368;29;20035;-94
2022/01/18 07:08:09;;;;;;;3.00;2.10;;;;;;;6.37;69.23;102109.91;4905622;29;20031;-92
2022/01/18 07:10:35;;;;;;;3.10;2.20;;;;;;;6.20;69.79;102102.22;4911591;29;20067;-94
2022/01/18 07:13:01;;;;;;;3.75;2.10;;;;;;;6.27;69.24;102076.09;4942547;29;20055;-91
2022/01/18 07:15:55;;;;;;;3.03;2.15;;;;;;;6.50;69.00;102117.16;4920913;29;20032;-93
2022/01/18 07:18:32;;;;;;;3.60;2.10;;;;;;;6.59;68.86;102122.25;4920721;29;20039;-92
2022/01/18 07:21:34;;;;;;;3.28;2.13;;;;;;;6.59;68.67;102111.88;4893567;29;20039;-92
2022/01/18 07:24:42;;;;;;;2.88;2.15;;;;;;;6.46;69.02;102117.63;4903477;29;20099;-90
2022/01/18 07:27:12;;;;;;;3.53;2.45;;;;;;;6.50;69.07;102122.34;4905244;29;20040;-92
2022/01/18 07:29:42;;;;;;;5.10;2.58;;;;;;;6.49;69.01;102125.69;4921410;29;20027;-92
2022/01/18 07:32:09;;;;;;;3.17;2.17;;;;;;;6.11;68.99;102055.63;4915419;29;20510;-92
2022/01/18 07:34:57;;;;;;;5.13;2.20;;;;;;;6.43;69.39;102139.00;4886824;29;20039;-91
2022/01/18 07:37:36;;;;;;;3.28;2.10;;;;;;;6.37;68.94;102127.16;4906743;29;20122;-92
2022/01/18 07:40:04;;;;;;;3.17;2.30;;;;;;;6.46;68.77;102143.59;4911942;29;20445;-90
2022/01/18 07:42:32;;;;;;;3.40;2.60;;;;;;;6.31;68.39;102104.16;4890528;29;20044;-89
2022/01/18 07:45:02;;;;;;;3.33;2.35;;;;;;;6.35;69.06;102132.22;4886619;29;20054;-90
2022/01/18 07:47:29;;;;;;;3.10;2.17;;;;;;;5.88;69.02;102028.44;4893226;29;20104;-90
2022/01/18 07:49:56;;;;;;;3.22;2.13;;;;;;;6.21;68.14;102096.28;4918661;29;20032;-91
2022/01/18 07:52:23;;;;;;;3.53;2.25;;;;;;;5.90;68.41;102032.09;4924364;29;20032;-89
2022/01/18 07:54:56;;;;;;;3.83;2.40;;;;;;;6.37;69.12;102141.06;4899446;29;20120;-90
2022/01/18 07:57:23;;;;;;;3.05;2.20;;;;;;;6.38;68.45;102108.22;4908823;29;20032;-89
2022/01/18 07:59:52;;;;;;;3.42;2.38;;;;;;;6.41;68.21;102132.75;4902496;29;20032;-90
2022/01/18 08:02:19;;;;;;;4.15;2.53;;;;;;;6.28;68.80;102130.69;4891261;29;20043;-90
2022/01/18 08:04:44;;;;;;;3.72;2.22;;;;;;;6.34;68.65;102145.94;4918942;29;20040;-91
2022/01/18 08:07:16;;;;;;;4.03;2.50;;;;;;;6.27;68.77;102135.78;4886086;29;20413;-90
2022/01/18 08:09:41;;;;;;;3.35;2.20;;;;;;;6.44;68.91;102171.97;4902061;29;20032;-90
2022/01/18 08:12:08;;;;;;;3.58;2.15;;;;;;;6.21;68.39;102098.88;4913540;29;20039;-85
2022/01/18 08:14:34;;;;;;;3.30;2.47;;;;;;;6.39;68.48;102172.31;4915201;29;20134;-87
2022/01/18 08:17:01;;;;;;;4.65;2.63;;;;;;;6.11;68.46;102147.28;4916875;29;20032;-84
2022/01/18 08:19:35;;;;;;;4.13;2.60;;;;;;;6.03;68.47;102113.63;4919579;29;20036;-87
2022/01/18 08:22:03;;;;;;;5.03;2.60;;;;;;;6.57;68.14;102179.22;4919727;29;20090;-85
2022/01/18 08:24:28;;;;;;;4.90;2.70;;;;;;;6.51;68.13;102163.97;4920475;29;20024;-88
2022/01/18 08:26:54;;;;;;;3.38;2.30;;;;;;;6.60;67.63;102179.47;4919763;29;20031;-86
2022/01/18 08:29:21;;;;;;;3.95;2.53;;;;;;;6.51;67.91;102173.44;4903278;29;20571;-86
2022/01/18 08:31:47;;;;;;;;;;;;;;;6.49;68.13;102182.78;4919858;29;20032;-86
2022/01/18 08:34:13;;;;;;;3.80;2.28;;;;;;;6.60;68.00;102191.56;4917704;29;20376;-88
2022/01/18 08:36:39;;;;;;;;;;;;;;;6.61;68.01;102186.53;4919090;29;20031;-88
2022/01/18 08:39:07;;;;;;;3.03;2.17;;;;;;;6.49;68.11;102194.06;4919053;29;19915;-88
2022/01/18 08:41:33;;;;;;;3.92;2.28;;;;;;;6.31;68.34;102158.63;4918925;29;20460;-87
2022/01/18 08:43:59;;;;;;;;;;;;;;;6.63;68.08;102191.84;4919312;29;20039;-86
2022/01/18 08:46:25;;;;;;;4.65;2.53;;;;;;;6.46;67.67;102160.06;4919224;29;20444;-88
2022/01/18 08:48:52;;;;;;;5.82;2.80;;;;;;;6.63;67.95;102189.25;4903110;29;20493;-88
2022/01/18 08:51:18;;;;;;;3.55;2.40;;;;;;;6.03;67.93;102101.59;4933229;29;20036;-86
2022/01/18 08:53:48;;;;;;;5.68;2.92;;;;;;;6.34;68.32;102182.25;4918681;29;20499;-87
2022/01/18 08:56:16;;;;;;;5.93;2.80;;;;;;;6.35;68.23;102191.88;4885641;29;20032;-85
2022/01/18 08:58:41;;;;;;;3.40;2.47;;;;;;;5.90;68.18;102129.69;4916909;29;20513;-84
2022/01/18 09:01:16;;;;;;;6.07;3.00;;;;;;;6.35;68.87;102189.28;4916093;29;20032;-89
2022/01/18 09:03:50;;;;;;;6.57;3.13;;;;;;;6.38;67.61;102181.78;4905198;29;20065;-90
2022/01/18 09:06:18;;;;;;;4.57;2.67;;;;;;;6.21;67.56;102169.81;4889085;29;20036;-88
2022/01/18 09:08:45;;;;;;;5.03;3.00;;;;;;;5.95;68.54;102158.66;4903067;29;20041;-89
2022/01/18 09:11:39;;;;;;;5.18;2.90;;;;;;;6.08;69.07;102193.69;4903562;29;20087;-88
2022/01/18 09:14:06;;;;;;;5.40;2.97;;;;;;;6.30;67.13;102173.25;4914931;29;20051;-90
2022/01/18 09:16:41;;;;;;;5.63;3.30;;;;;;;6.41;66.67;102188.94;4902794;29;20059;-90
2022/01/18 09:19:08;;;;;;;5.75;3.25;;;;;;;6.37;67.38;102184.22;4902897;29;20030;-90
2022/01/18 09:21:35;;;;;;;5.68;2.97;;;;;;;6.14;68.05;102169.09;4902761;29;20086;-89
2022/01/18 09:24:02;;;;;;;4.90;2.78;;;;;;;6.12;67.98;102145.63;4890164;29;20047;-89
2022/01/18 09:26:27;;;;;;;4.93;3.10;;;;;;;6.43;67.49;102180.50;4912590;29;20034;-88
2022/01/18 09:29:01;;;;;;;5.05;3.13;;;;;;;6.03;67.61;102140.50;4918973;29;20027;-89
2022/01/18 09:31:31;;;;;;;5.00;2.88;;;;;;;6.07;66.63;102095.91;4903152;29;20039;-90
2022/01/18 09:33:58;;;;;;;7.13;3.20;;;;;;;6.44;66.89;102139.94;4918538;29;20509;-89
2022/01/18 09:36:40;;;;;;;5.60;3.25;;;;;;;6.36;66.61;102144.41;4903051;29;20035;-90
2022/01/18 09:39:07;;;;;;;6.63;3.97;;;;;;;6.49;66.48;102159.41;4902973;29;20062;-89
2022/01/18 09:41:39;;;;;;;7.63;3.47;;;;;;;6.31;66.06;102119.72;4918453;29;20028;-89
2022/01/18 09:44:07;;;;;;;7.03;3.30;;;;;;;6.18;67.17;102158.25;4900720;29;20036;-89
2022/01/18 09:46:36;;;;;;;5.43;3.20;;;;;;;6.38;66.75;102161.03;4912146;29;20410;-90
2022/01/18 09:49:03;;;;;;;5.25;3.28;;;;;;;6.32;67.13;102171.72;4918097;29;20404;-89
2022/01/18 09:51:39;;;;;;;5.43;3.22;;;;;;;6.17;67.05;102135.69;4902702;29;20032;-91
2022/01/18 09:54:30;;;;;;;5.47;3.30;;;;;;;6.37;66.33;102177.38;4931831;29;20405;-91
2022/01/18 09:56:59;;;;;;;5.60;3.10;;;;;;;6.51;65.88;102173.44;4902840;29;20685;-91
2022/01/18 09:59:25;;;;;;;5.53;3.33;;;;;;;6.34;66.62;102151.13;4924800;29;20043;-91
2022/01/18 10:02:03;;;;;;;4.50;3.00;;;;;;;6.21;66.76;102141.28;4918588;29;20042;-90
2022/01/18 10:04:38;;;;;;;5.75;2.97;;;;;;;6.02;66.79;102102.34;4902802;29;20031;-89
2022/01/18 10:10:46;;;;;;;5.65;3.30;;;;;;;6.05;67.16;102131.19;4935390;29;20066;-90
2022/01/18 10:13:23;;;;;;;7.18;3.40;;;;;;;5.98;67.92;102123.56;4885456;29;20055;-90
2022/01/18 10:16:11;;;;;;;5.15;3.00;;;;;;;6.36;67.22;102157.38;4904140;29;20039;-89
2022/01/18 10:18:48;;;;;;;;;;;;;;;6.57;66.61;102152.34;4902818;29;20047;-89
2022/01/18 10:21:40;;;;;;;6.28;3.10;;;;;;;6.48;66.05;102147.22;4934908;29;19915;-89
2022/01/18 10:24:26;;;;;;;5.05;3.28;;;;;;;5.98;66.84;102102.81;4902309;29;20071;-89
2022/01/18 10:26:55;;;;;;;7.45;3.63;;;;;;;6.26;66.18;102115.78;4918359;29;20047;-89
2022/01/18 10:29:37;;;;;;;5.78;3.45;;;;;;;6.25;66.92;102127.84;4934900;29;20059;-89
2022/01/18 10:32:20;;;;;;;7.10;3.70;;;;;;;6.18;66.53;102122.88;4918162;29;20107;-91
2022/01/18 10:37:22;;;;;;;5.93;3.40;;;;;;;6.10;67.45;102140.28;4911968;29;20035;-89
2022/01/18 10:39:50;;;;;;;7.00;3.90;;;;;;;6.11;67.29;102134.31;4905902;29;20115;-88
2022/01/18 10:42:26;;;;;;;6.78;3.65;;;;;;;6.49;66.00;102126.59;4914375;29;20032;-88
2022/01/18 10:45:35;;;;;;;6.70;3.40;;;;;;;6.26;67.19;102140.03;4915513;29;20027;-88
2022/01/18 10:48:04;;;;;;;7.00;3.45;;;;;;;6.07;67.35;102119.22;4931868;29;20043;-88
2022/01/18 10:50:35;;;;;;;6.85;3.80;;;;;;;6.19;66.81;102145.41;4912859;29;20028;-88
2022/01/18 10:53:22;;;;;;;6.70;3.88;;;;;;;6.36;66.49;102156.47;4908047;29;20039;-88
2022/01/18 10:56:15;;;;;;;5.90;3.33;;;;;;;6.23;67.41;102155.31;4903511;29;20043;-89
2022/01/18 10:58:52;;;;;;;5.22;3.22;;;;;;;6.47;67.16;102153.19;4918039;29;20310;-89
2022/01/18 11:01:20;;;;;;;6.22;3.20;;;;;;;6.04;66.62;102094.72;4900128;29;20100;-87
2022/01/18 11:04:15;;;;;;;6.80;3.42;;;;;;;6.58;66.33;102162.84;4901865;29;20075;-88
2022/01/18 11:06:56;;;;;;;4.55;3.00;;;;;;;5.91;67.76;102126.34;4915933;29;20040;-90
2022/01/18 11:09:50;;;;;;;7.00;3.33;;;;;;;6.16;67.71;102162.38;4895556;29;20044;-93
2022/01/18 11:12:18;;;;;;;6.05;3.45;;;;;;;6.18;67.78;102161.78;4934131;29;20665;-94
2022/01/18 11:14:46;;;;;;;5.75;3.50;;;;;;;5.93;68.08;102119.63;4916773;29;20119;-93
2022/01/18 11:17:26;;;;;;;6.22;3.20;;;;;;;6.08;68.14;102146.09;4886777;29;20477;-93
2022/01/18 11:23:23;;;;;;;6.35;3.58;;;;;;;5.96;67.94;102112.16;4936515;29;20103;-92
2022/01/18 11:25:53;;;;;;;5.85;3.33;;;;;;;6.11;68.89;102169.72;4922940;29;20035;-95
2022/01/18 11:28:20;;;;;;;6.38;3.95;;;;;;;6.42;66.89;102146.66;4896123;29;20127;-92
2022/01/18 11:30:47;;;;;;;6.80;3.58;;;;;;;6.41;65.54;102161.28;4913084;29;20077;-94
2022/01/18 11:33:20;;;;;;;6.75;3.50;;;;;;;6.43;66.64;102171.81;4902302;29;20032;-94
2022/01/18 11:35:54;;;;;;;5.32;3.40;;;;;;;6.35;66.79;102155.56;4899412;29;20421;-94
2022/01/18 11:38:53;;;;;;;5.28;3.20;;;;;;;6.59;66.74;102156.00;4918867;29;20094;-94
2022/01/18 11:41:34;;;;;;;8.48;4.00;;;;;;;6.02;67.92;102130.88;4907623;29;20031;-93
2022/01/18 11:44:19;;;;;;;6.75;3.28;;;;;;;6.31;67.27;102151.75;4909636;29;20031;-94
2022/01/18 11:47:23;;;;;;;6.03;3.25;;;;;;;6.47;66.85;102159.28;4903467;29;20043;-95
2022/01/18 11:49:51;;;;;;;5.88;3.50;;;;;;;6.42;66.90;102154.44;4921633;29;20058;-93
2022/01/18 11:52:37;;;;;;;6.13;3.28;;;;;;;6.16;67.56;102164.97;4902120;29;20032;-92
2022/01/18 11:55:05;;;;;;;6.35;3.75;;;;;;;6.16;67.63;102154.59;4918588;29;20110;-94
2022/01/18 11:57:30;;;;;;;5.88;3.50;;;;;;;6.22;67.61;102169.06;4905001;29;20042;-94
2022/01/18 12:00:11;;;;;;;4.95;3.35;;;;;;;6.21;66.95;102172.41;4922215;29;20099;-92
2022/01/18 12:02:42;;;;;;;7.70;3.50;;;;;;;6.16;67.22;102154.59;4920282;29;20043;-95
2022/01/18 12:05:21;;;;;;;9.05;3.95;;;;;;;6.04;66.89;102144.00;4903186;29;20044;-93
2022/01/18 12:08:02;;;;;;;8.32;3.47;;;;;;;5.89;67.76;102112.31;4913603;29;20043;-93
2022/01/18 12:10:32;;;;;;;6.03;3.65;;;;;;;6.07;67.92;102184.06;4901747;29;20422;-92
2022/01/18 12:13:24;;;;;;;6.50;3.72;;;;;;;6.20;67.79;102187.81;4913785;29;20126;-95
2022/01/18 12:15:51;;;;;;;7.10;3.72;;;;;;;5.94;67.92;102186.25;4892925;29;20047;-94
2022/01/18 12:18:21;;;;;;;5.30;3.50;;;;;;;6.07;67.82;102178.88;4902394;29;20036;-93
2022/01/18 12:20:53;;;;;;;7.45;3.70;;;;;;;5.76;68.27;102117.09;4908117;29;20028;-94
2022/01/18 12:23:44;;;;;;;6.75;3.90;;;;;;;6.09;68.53;102195.50;4904784;29;20027;-93
2022/01/18 12:26:47;;;;;;;7.93;3.63;;;;;;;5.98;67.91;102154.69;4888211;29;20043;-93
2022/01/18 12:34:41;;;;;;;6.35;3.42;;;;;;;6.04;68.46;102182.88;4934267;29;20577;-92
2022/01/18 12:37:27;;;;;;;6.20;3.58;;;;;;;6.22;68.49;102196.66;4904829;29;20038;-94
2022/01/18 12:39:58;;;;;;;7.50;4.10;;;;;;;6.25;68.38;102200.47;4936665;29;20126;-90
2022/01/18 12:45:42;;;;;;;6.18;4.10;;;;;;;6.21;68.60;102210.44;4918284;29;20039;-93
2022/01/18 12:48:13;;;;;;;7.70;4.30;;;;;;;6.15;68.72;102221.13;4896207;29;20060;-92
2022/01/18 12:50:51;;;;;;;6.57;4.00;;;;;;;5.92;68.39;102180.00;4904627;29;20087;-94
2022/01/18 12:53:29;;;;;;;8.05;4.05;;;;;;;6.08;69.17;102232.59;4898234;29;20158;-92
2022/01/18 12:56:06;;;;;;;9.88;4.30;;;;;;;6.07;69.02;102227.25;4913586;29;20046;-92
2022/01/18 12:58:49;;;;;;;7.25;3.63;;;;;;;6.07;69.05;102238.53;4919666;29;20454;-91
2022/01/18 13:01:17;;;;;;;8.55;4.18;;;;;;;5.99;68.81;102221.34;4920804;29;20039;-89
2022/01/18 13:03:58;;;;;;;6.53;4.10;;;;;;;6.04;68.79;102232.16;4903660;29;20119;-91
2022/01/18 13:06:31;;;;;;;6.80;3.92;;;;;;;6.07;68.83;102229.84;4900249;29;20040;-94
2022/01/18 13:12:34;;;;;;;7.18;4.15;;;;;;;6.07;68.50;102201.31;4938085;29;20524;-94
2022/01/18 13:15:06;;;;;;;7.30;4.20;;;;;;;6.13;68.74;102224.34;4906471;29;20044;-96
2022/01/18 13:23:54;;;;;;;9.02;5.05;;;;;;;6.02;69.46;102244.06;4918719;29;20042;-94
2022/01/18 13:26:40;;;;;;;9.95;4.60;;;;;;;5.89;68.84;102214.31;4908020;29;20036;-94
2022/01/18 13:29:13;;;;;;;8.30;4.65;;;;;;;6.09;68.86;102254.25;4918115;29;20024;-96
2022/01/18 13:32:19;;;;;;;10.45;4.57;;;;;;;5.98;69.11;102247.13;4918210;29;20126;-93
2022/01/18 13:35:05;;;;;;;10.38;4.30;;;;;;;5.94;69.62;102239.78;4898448;29;20134;-93
2022/01/18 13:37:50;;;;;;;9.35;4.80;;;;;;;6.14;68.70;102247.84;4904294;29;20051;-94
2022/01/18 13:40:18;;;;;;;8.88;4.68;;;;;;;5.97;69.18;102241.03;4896520;29;20072;-93
2022/01/18 13:43:06;;;;;;;11.18;4.97;;;;;;;5.81;69.49;102211.78;4919867;29;20039;-93
2022/01/18 13:45:36;;;;;;;10.00;5.53;;;;;;;5.96;69.02;102253.84;4921554;29;20039;-91
2022/01/18 13:48:10;;;;;;;8.07;4.65;;;;;;;6.08;69.16;102268.91;4904446;29;20489;-91
2022/01/18 13:54:03;;;;;;;10.48;4.85;;;;;;;6.21;68.53;102271.00;4937029;29;20078;-92
2022/01/18 13:56:53;;;;;;;10.45;5.18;;;;;;;6.13;68.92;102279.72;4904219;29;20034;-93
2022/01/18 13:59:27;;;;;;;10.18;5.47;;;;;;;5.90;69.00;102246.34;4899901;29;20080;-90
2022/01/18 14:02:08;;;;;;;9.30;5.13;;;;;;;5.87;69.30;102257.34;4891203;29;20035;-91
2022/01/18 14:04:34;;;;;;;11.68;5.20;;;;;;;5.84;69.00;102240.56;4902948;29;20100;-93
2022/01/18 14:07:03;;;;;;;10.02;5.22;;;;;;;5.64;69.00;102182.53;4911991;29;20379;-91
2022/01/18 14:09:31;;;;;;;9.73;5.20;;;;;;;6.10;69.44;102285.53;4899849;29;20059;-91
2022/01/18 14:12:43;;;;;;;9.50;5.07;;;;;;;6.09;69.17;102281.09;4899435;29;20032;-92
2022/01/18 14:15:41;;;;;;;9.60;5.28;;;;;;;5.99;69.00;102277.47;4899511;29;20151;-91
2022/01/18 14:18:14;;;;;;;;;;;;;;;6.11;69.05;102284.75;4887859;29;20502;-93
2022/01/18 14:20:40;;;;;;;9.15;5.10;;;;;;;5.87;69.05;102248.66;4916034;29;19962;-91
2022/01/18 14:23:20;;;;;;;9.98;5.05;;;;;;;5.71;69.65;102252.38;4930648;29;20150;-93
2022/01/18 14:25:50;;;;;;;10.52;5.40;;;;;;;5.89;70.02;102289.50;4887021;29;20047;-92
2022/01/18 14:28:19;;;;;;;8.07;4.68;;;;;;;6.17;68.87;102292.22;4897476;29;20027;-92